createdAt,value
2018-12-27T00:01:31.771Z,29.50
2018-12-27T00:03:59.396Z,29.50
2018-12-27T00:06:27.078Z,29.60
2018-12-27T00:08:54.749Z,29.60
2018-12-27T00:11:22.446Z,29.60
2018-12-27T00:13:51.726Z,29.60
2018-12-27T00:16:19.315Z,29.60
2018-12-27T00:18:46.924Z,29.50
2018-12-27T00:21:14.590Z,29.50
2018-12-27T00:23:42.188Z,29.90
2018-12-27T00:26:09.834Z,30.10
2018-12-27T00:28:37.491Z,30.00
2018-12-27T00:31:05.273Z,29.90
2018-12-27T00:33:33.090Z,29.80
2018-12-27T00:36:00.909Z,29.90
2018-12-27T00:38:28.747Z,29.90
2018-12-27T00:40:56.564Z,29.80
2018-12-27T00:43:24.317Z,29.90
2018-12-27T00:45:52.086Z,29.80
2018-12-27T00:48:19.959Z,29.90
2018-12-27T00:50:47.702Z,29.90
2018-12-27T00:53:15.522Z,29.80
2018-12-27T00:55:43.377Z,29.90
2018-12-27T00:58:11.206Z,29.90
2018-12-27T01:00:38.979Z,29.90
2018-12-27T01:03:10.994Z,29.90
2018-12-27T01:05:36.333Z,29.90
2018-12-27T01:08:04.163Z,29.90
2018-12-27T01:10:31.981Z,29.90
2018-12-27T01:12:59.789Z,29.90
2018-12-27T01:15:27.555Z,29.90
2018-12-27T01:17:55.325Z,29.80
2018-12-27T01:20:23.136Z,29.90
2018-12-27T01:22:50.897Z,29.80
2018-12-27T01:25:18.669Z,29.90
2018-12-27T01:27:46.500Z,29.80
2018-12-27T01:30:14.269Z,29.80
2018-12-27T01:32:42.019Z,29.90
2018-12-27T01:35:09.833Z,29.80
2018-12-27T01:37:37.585Z,29.80
2018-12-27T01:40:05.360Z,29.70
2018-12-27T01:42:33.179Z,29.80
2018-12-27T01:45:00.939Z,29.70
2018-12-27T01:47:28.713Z,29.80
2018-12-27T01:49:56.521Z,29.70
2018-12-27T01:52:24.389Z,29.70
2018-12-27T01:54:52.236Z,29.70
2018-12-27T01:57:20.035Z,29.70
2018-12-27T01:59:47.819Z,29.80
2018-12-27T02:02:15.750Z,29.80
2018-12-27T02:04:43.563Z,29.70
2018-12-27T02:07:11.315Z,30.20
2018-12-27T02:09:39.091Z,29.70
2018-12-27T02:12:06.963Z,29.70
2018-12-27T02:14:34.810Z,29.70
2018-12-27T02:17:02.575Z,29.70
2018-12-27T02:19:30.441Z,29.70
2018-12-27T02:21:58.208Z,29.60
2018-12-27T02:24:26.071Z,29.60
2018-12-27T02:26:53.963Z,29.70
2018-12-27T02:29:21.747Z,29.70
2018-12-27T02:31:49.534Z,29.60
2018-12-27T02:34:17.380Z,29.70
2018-12-27T02:36:45.213Z,29.70
2018-12-27T02:39:12.963Z,29.70
2018-12-27T02:41:40.780Z,29.70
2018-12-27T02:44:08.535Z,29.70
2018-12-27T02:46:36.309Z,29.80
2018-12-27T02:49:04.113Z,29.70
2018-12-27T02:51:31.887Z,29.70
2018-12-27T02:53:59.727Z,29.80
2018-12-27T02:56:27.559Z,29.80
2018-12-27T02:58:55.386Z,29.80
2018-12-27T03:01:23.147Z,29.80
2018-12-27T03:03:51.816Z,29.90
2018-12-27T03:06:20.437Z,29.90
2018-12-27T03:08:49.070Z,29.90
2018-12-27T03:11:16.897Z,29.80
2018-12-27T03:13:44.718Z,29.80
2018-12-27T03:16:13.329Z,29.80
2018-12-27T03:18:41.996Z,29.80
2018-12-27T03:21:10.670Z,29.80
2018-12-27T03:23:39.292Z,29.80
2018-12-27T03:26:07.917Z,29.80
2018-12-27T03:28:36.607Z,29.80
2018-12-27T03:31:05.281Z,29.80
2018-12-27T03:33:33.953Z,29.90
2018-12-27T03:36:02.636Z,29.80
2018-12-27T03:38:31.245Z,30.30
2018-12-27T03:40:59.850Z,29.70
2018-12-27T03:43:28.502Z,29.70
2018-12-27T03:45:57.119Z,29.70
2018-12-27T03:48:25.752Z,29.80
2018-12-27T03:50:54.584Z,29.70
2018-12-27T03:53:23.192Z,29.80
2018-12-27T03:55:51.794Z,29.70
2018-12-27T03:58:20.469Z,29.70
2018-12-27T04:00:49.103Z,29.80
2018-12-27T04:03:16.872Z,29.70
2018-12-27T04:05:44.667Z,29.70
2018-12-27T04:08:12.418Z,29.90
2018-12-27T04:10:40.187Z,29.90
2018-12-27T04:13:08.072Z,29.70
2018-12-27T04:15:35.711Z,29.70
2018-12-27T04:18:03.281Z,29.70
2018-12-27T04:20:30.959Z,29.90
2018-12-27T04:22:58.633Z,29.80
2018-12-27T04:25:26.279Z,29.80
2018-12-27T04:27:53.916Z,29.90
2018-12-27T04:30:21.547Z,29.80
2018-12-27T04:32:49.225Z,29.90
2018-12-27T04:35:16.869Z,29.80
2018-12-27T04:37:44.511Z,29.80
2018-12-27T04:40:12.087Z,29.90
2018-12-27T04:42:39.695Z,30.00
2018-12-27T04:45:07.434Z,29.80
2018-12-27T04:47:35.108Z,30.00
2018-12-27T04:50:02.916Z,29.90
2018-12-27T04:52:30.571Z,29.80
2018-12-27T04:54:58.167Z,29.90
2018-12-27T04:57:25.829Z,29.80
2018-12-27T04:59:53.435Z,29.90
2018-12-27T05:02:21.103Z,29.90
2018-12-27T05:04:48.809Z,30.00
2018-12-27T05:07:16.410Z,30.00
2018-12-27T05:09:44.050Z,30.00
2018-12-27T05:12:11.625Z,30.00
2018-12-27T05:14:39.315Z,30.00
2018-12-27T05:17:06.963Z,30.00
2018-12-27T05:19:34.679Z,30.00
2018-12-27T05:22:02.279Z,30.00
2018-12-27T05:24:29.871Z,30.00
2018-12-27T05:26:57.493Z,30.00
2018-12-27T05:29:25.098Z,30.00
2018-12-27T05:31:52.701Z,30.00
2018-12-27T05:34:26.175Z,30.00
2018-12-27T05:36:49.636Z,30.00
2018-12-27T05:39:17.265Z,30.10
2018-12-27T05:41:44.889Z,30.00
2018-12-27T05:44:12.462Z,30.00
2018-12-27T05:46:40.100Z,30.00
2018-12-27T05:49:07.679Z,30.00
2018-12-27T05:51:35.322Z,30.10
2018-12-27T05:54:02.927Z,30.10
2018-12-27T05:56:30.538Z,30.10
2018-12-27T05:58:58.173Z,30.20
2018-12-27T06:01:25.760Z,30.10
2018-12-27T06:03:53.333Z,30.20
2018-12-27T06:06:21.017Z,30.10
2018-12-27T06:08:48.611Z,30.00
2018-12-27T06:11:16.187Z,30.00
2018-12-27T06:13:43.824Z,30.10
2018-12-27T06:16:11.430Z,30.00
2018-12-27T06:18:39.004Z,30.10
2018-12-27T06:21:06.632Z,30.00
2018-12-27T06:23:34.272Z,30.00
2018-12-27T06:26:01.912Z,30.00
2018-12-27T06:28:29.545Z,30.00
2018-12-27T06:30:57.143Z,30.00
2018-12-27T06:33:24.772Z,30.00
2018-12-27T06:35:52.367Z,30.00
2018-12-27T06:38:20.017Z,30.10
2018-12-27T06:40:47.678Z,30.00
2018-12-27T06:43:15.264Z,30.20
2018-12-27T06:45:42.866Z,30.20
2018-12-27T06:48:10.508Z,30.20
2018-12-27T06:50:38.112Z,30.30
2018-12-27T06:53:05.781Z,30.40
2018-12-27T06:55:33.495Z,30.50
2018-12-27T06:58:01.086Z,30.50
2018-12-27T07:00:28.770Z,30.70
2018-12-27T07:02:56.432Z,30.80
2018-12-27T07:05:24.036Z,30.70
2018-12-27T07:07:51.622Z,30.70
2018-12-27T07:10:19.271Z,31.00
2018-12-27T07:12:46.938Z,31.00
2018-12-27T07:15:14.550Z,31.00
2018-12-27T07:17:42.194Z,31.40
2018-12-27T07:20:09.811Z,32.20
2018-12-27T07:22:37.464Z,32.10
2018-12-27T07:25:05.180Z,31.70
2018-12-27T07:27:32.781Z,31.80
2018-12-27T07:30:00.428Z,31.40
2018-12-27T07:32:28.110Z,31.80
2018-12-27T07:34:56.691Z,31.50
2018-12-27T07:37:24.556Z,31.00
2018-12-27T07:39:52.166Z,30.60
2018-12-27T07:42:19.740Z,30.30
2018-12-27T07:44:47.377Z,30.00
2018-12-27T07:47:14.978Z,29.90
2018-12-27T07:49:42.685Z,30.60
2018-12-27T07:52:10.453Z,30.80
2018-12-27T07:54:38.115Z,30.90
2018-12-27T07:57:05.750Z,31.40
2018-12-27T07:59:33.383Z,31.90
2018-12-27T08:02:01.100Z,31.80
2018-12-27T08:04:28.712Z,31.80
2018-12-27T08:06:56.474Z,31.70
2018-12-27T08:09:24.134Z,33.50
2018-12-27T08:11:51.748Z,33.80
2018-12-27T08:14:19.441Z,33.80
2018-12-27T08:16:47.084Z,32.30
2018-12-27T08:19:14.784Z,30.90
2018-12-27T08:21:42.578Z,30.60
2018-12-27T08:24:10.685Z,30.30
2018-12-27T08:26:38.355Z,29.50
2018-12-27T08:29:06.036Z,29.10
2018-12-27T08:31:36.734Z,28.20
2018-12-27T08:34:03.393Z,28.30
2018-12-27T08:36:31.034Z,28.50
2018-12-27T08:38:58.746Z,29.10
2018-12-27T08:41:26.434Z,29.10
2018-12-27T08:43:54.146Z,29.20
2018-12-27T08:46:24.275Z,29.90
2018-12-27T08:48:51.771Z,29.60
2018-12-27T08:51:19.512Z,29.90
2018-12-27T08:53:47.165Z,30.00
2018-12-27T08:56:14.926Z,30.20
2018-12-27T08:58:42.712Z,30.10
2018-12-27T09:01:10.426Z,30.10
2018-12-27T09:03:38.101Z,30.10
2018-12-27T09:06:05.773Z,33.70
2018-12-27T09:08:33.396Z,34.70
2018-12-27T09:11:01.088Z,33.80
2018-12-27T09:13:28.824Z,33.70
2018-12-27T09:15:56.458Z,33.60
2018-12-27T09:18:24.251Z,32.90
2018-12-27T09:20:51.933Z,32.80
2018-12-27T09:23:19.653Z,32.50
2018-12-27T09:25:47.376Z,32.60
2018-12-27T09:28:14.981Z,32.60
2018-12-27T09:30:42.652Z,32.40
2018-12-27T09:33:10.374Z,32.40
2018-12-27T09:35:37.996Z,30.00
2018-12-27T09:38:05.589Z,28.30
2018-12-27T09:40:33.266Z,26.10
2018-12-27T09:43:00.911Z,25.10
2018-12-27T09:45:28.633Z,24.80
2018-12-27T09:47:56.304Z,24.90
2018-12-27T09:50:23.925Z,25.70
2018-12-27T09:52:51.682Z,25.10
2018-12-27T09:55:19.396Z,25.00
2018-12-27T09:57:47.011Z,24.10
2018-12-27T10:00:14.628Z,23.70
2018-12-27T10:02:42.336Z,23.70
2018-12-27T10:05:09.992Z,23.70
2018-12-27T10:07:37.672Z,23.60
2018-12-27T10:10:05.798Z,23.70
2018-12-27T10:12:33.546Z,23.60
2018-12-27T10:15:01.505Z,23.70
2018-12-27T10:17:32.138Z,23.60
2018-12-27T10:19:59.906Z,23.00
2018-12-27T10:22:27.942Z,22.70
2018-12-27T10:24:58.716Z,22.60
2018-12-27T10:27:27.062Z,22.70
2018-12-27T10:29:54.841Z,22.50
2018-12-27T10:32:22.888Z,22.50
2018-12-27T10:34:50.931Z,22.60
2018-12-27T10:37:18.651Z,28.30
2018-12-27T10:39:49.488Z,28.50
2018-12-27T10:42:17.517Z,26.80
2018-12-27T10:44:51.715Z,25.40
2018-12-27T10:47:19.868Z,24.10
2018-12-27T10:49:48.163Z,24.00
2018-12-27T10:52:16.963Z,23.90
2018-12-27T10:54:45.119Z,23.90
2018-12-27T10:57:12.783Z,23.60
2018-12-27T10:59:41.095Z,23.00
2018-12-27T11:02:12.707Z,23.10
2018-12-27T11:04:40.659Z,23.40
2018-12-27T11:07:09.060Z,23.60
2018-12-27T11:09:36.909Z,23.90
2018-12-27T11:12:05.813Z,23.80
2018-12-27T11:14:34.749Z,23.80
2018-12-27T11:17:06.007Z,24.70
2018-12-27T11:19:34.234Z,25.20
2018-12-27T11:22:12.553Z,25.50
2018-12-27T11:24:40.761Z,25.60
2018-12-27T11:27:08.702Z,25.80
2018-12-27T11:29:36.393Z,26.10
2018-12-27T11:32:04.053Z,26.00
2018-12-27T11:34:31.773Z,26.30
2018-12-27T11:36:59.553Z,26.50
2018-12-27T11:39:27.235Z,27.20
2018-12-27T11:41:55.007Z,26.60
2018-12-27T11:44:22.763Z,26.90
2018-12-27T11:46:50.436Z,27.00
2018-12-27T11:49:18.313Z,27.20
2018-12-27T11:51:45.964Z,27.10
2018-12-27T11:54:13.723Z,27.50
2018-12-27T11:56:41.531Z,27.50
2018-12-27T11:59:09.242Z,27.80
2018-12-27T12:01:36.926Z,28.00
2018-12-27T12:04:04.623Z,27.90
2018-12-27T12:06:32.314Z,28.20
2018-12-27T12:09:00.123Z,28.20
2018-12-27T12:11:27.774Z,28.30
2018-12-27T12:13:55.469Z,28.20
2018-12-27T12:16:23.090Z,28.30
2018-12-27T12:18:50.772Z,28.30
2018-12-27T12:21:18.478Z,28.30
2018-12-27T12:23:46.183Z,28.30
2018-12-27T12:26:13.859Z,28.30
2018-12-27T12:28:41.593Z,28.20
2018-12-27T12:31:09.287Z,28.30
2018-12-27T12:33:36.999Z,28.30
2018-12-27T12:36:10.569Z,28.30
2018-12-27T12:38:34.288Z,28.30
2018-12-27T12:41:02.415Z,28.30
2018-12-27T12:43:30.200Z,28.30
2018-12-27T12:45:57.929Z,28.30
2018-12-27T12:48:25.655Z,28.30
2018-12-27T12:50:53.353Z,28.30
2018-12-27T12:53:21.063Z,28.30
2018-12-27T12:55:48.876Z,28.30
2018-12-27T12:58:17.204Z,28.30
2018-12-27T13:00:44.951Z,28.30
2018-12-27T13:03:15.464Z,28.30
2018-12-27T13:05:43.163Z,28.40
2018-12-27T13:08:10.872Z,28.40
2018-12-27T13:10:38.466Z,28.40
2018-12-27T13:13:06.089Z,28.30
2018-12-27T13:15:33.896Z,28.30
2018-12-27T13:18:01.634Z,28.30
2018-12-27T13:20:29.327Z,28.30
2018-12-27T13:22:56.970Z,28.30
2018-12-27T13:25:24.600Z,28.80
2018-12-27T13:27:52.204Z,28.30
2018-12-27T13:30:19.862Z,28.30
2018-12-27T13:32:47.534Z,28.20
2018-12-27T13:35:15.174Z,28.20
2018-12-27T13:37:42.847Z,28.30
2018-12-27T13:40:10.464Z,28.20
2018-12-27T13:42:38.148Z,28.20
2018-12-27T13:45:06.967Z,28.20
2018-12-27T13:47:34.638Z,28.80
2018-12-27T13:50:02.326Z,28.20
2018-12-27T13:52:30.037Z,28.20
2018-12-27T13:54:58.813Z,28.20
2018-12-27T13:57:26.412Z,28.70
2018-12-27T13:59:54.074Z,28.10
2018-12-27T14:02:21.668Z,28.10
2018-12-27T14:04:49.303Z,27.60
2018-12-27T14:07:17.060Z,27.20
2018-12-27T14:09:44.769Z,27.00
2018-12-27T14:12:12.379Z,26.10
2018-12-27T14:14:40.009Z,26.50
2018-12-27T14:17:07.615Z,26.80
2018-12-27T14:19:35.320Z,26.80
2018-12-27T14:22:03.048Z,26.50
2018-12-27T14:24:30.657Z,26.50
2018-12-27T14:26:58.261Z,26.30
2018-12-27T14:29:25.937Z,26.10
2018-12-27T14:31:53.587Z,25.80
2018-12-27T14:34:21.180Z,25.70
2018-12-27T14:36:48.775Z,25.80
2018-12-27T14:39:16.452Z,25.40
2018-12-27T14:41:44.104Z,25.50
2018-12-27T14:44:11.710Z,25.20
2018-12-27T14:46:39.608Z,25.30
2018-12-27T14:49:07.278Z,25.00
2018-12-27T14:51:34.887Z,24.80
2018-12-27T14:54:02.542Z,25.00
2018-12-27T14:56:30.215Z,24.90
2018-12-27T14:58:57.868Z,24.60
2018-12-27T15:01:25.526Z,24.40
2018-12-27T15:03:53.184Z,24.60
2018-12-27T15:06:20.822Z,24.50
2018-12-27T15:08:48.528Z,24.20
2018-12-27T15:11:16.213Z,24.30
2018-12-27T15:13:43.956Z,23.90
2018-12-27T15:16:11.677Z,23.60
2018-12-27T15:18:39.380Z,23.60
2018-12-27T15:21:07.069Z,23.50
2018-12-27T15:23:34.765Z,23.80
2018-12-27T15:26:02.394Z,24.90
2018-12-27T15:28:30.135Z,25.50
2018-12-27T15:30:57.825Z,25.40
2018-12-27T15:33:25.484Z,25.50
2018-12-27T15:35:53.122Z,24.10
2018-12-27T15:38:20.757Z,23.70
2018-12-27T15:40:48.507Z,23.60
2018-12-27T15:43:16.218Z,23.70
2018-12-27T15:45:43.885Z,23.70
2018-12-27T15:48:11.480Z,23.60
2018-12-27T15:50:39.147Z,23.70
2018-12-27T15:53:06.821Z,23.70
2018-12-27T15:55:34.539Z,23.20
2018-12-27T15:58:02.163Z,23.70
2018-12-27T16:00:29.835Z,23.00
2018-12-27T16:02:57.483Z,22.70
2018-12-27T16:05:25.249Z,22.10
2018-12-27T16:07:52.884Z,22.40
2018-12-27T16:10:20.735Z,22.00
2018-12-27T16:12:48.395Z,25.10
2018-12-27T16:15:16.123Z,25.10
2018-12-27T16:17:43.765Z,24.20
2018-12-27T16:20:11.408Z,36.00
2018-12-27T16:22:39.069Z,28.60
2018-12-27T16:25:06.661Z,28.70
2018-12-27T16:27:34.290Z,35.80
2018-12-27T16:30:01.975Z,34.90
2018-12-27T16:32:29.687Z,36.40
2018-12-27T16:34:57.270Z,40.10
2018-12-27T16:37:24.948Z,49.10
2018-12-27T16:39:52.529Z,39.90
2018-12-27T16:42:22.047Z,40.30
2018-12-27T16:44:49.541Z,41.50
2018-12-27T16:47:17.186Z,37.00
2018-12-27T16:49:44.819Z,32.10
2018-12-27T16:52:12.446Z,31.00
2018-12-27T16:54:40.128Z,28.90
2018-12-27T16:57:07.842Z,27.90
2018-12-27T16:59:35.448Z,27.00
2018-12-27T17:02:03.063Z,25.50
2018-12-27T17:04:30.812Z,26.20
2018-12-27T17:06:58.402Z,26.30
2018-12-27T17:09:26.046Z,25.60
2018-12-27T17:11:53.654Z,25.40
2018-12-27T17:14:21.268Z,25.40
2018-12-27T17:16:48.990Z,24.80
2018-12-27T17:19:16.598Z,24.00
2018-12-27T17:21:44.274Z,24.30
2018-12-27T17:24:12.005Z,24.00
2018-12-27T17:26:39.617Z,23.90
2018-12-27T17:29:07.425Z,23.90
2018-12-27T17:31:35.213Z,25.40
2018-12-27T17:34:03.399Z,23.90
2018-12-27T17:36:31.133Z,24.50
2018-12-27T17:38:58.744Z,23.80
2018-12-27T17:41:26.423Z,23.80
2018-12-27T17:43:54.155Z,23.90
2018-12-27T17:46:21.949Z,24.80
2018-12-27T17:48:49.570Z,25.10
2018-12-27T17:51:17.249Z,25.30
2018-12-27T17:53:44.855Z,24.90
2018-12-27T17:56:16.087Z,24.20
2018-12-27T17:58:44.010Z,23.80
2018-12-27T18:01:11.635Z,23.70
2018-12-27T18:03:39.409Z,23.70
2018-12-27T18:06:07.011Z,23.60
2018-12-27T18:08:34.706Z,23.70
2018-12-27T18:11:02.414Z,23.70
2018-12-27T18:13:30.136Z,23.70
2018-12-27T18:15:57.759Z,23.90
2018-12-27T18:18:25.488Z,24.30
2018-12-27T18:20:53.188Z,24.50
2018-12-27T18:23:20.805Z,24.70
2018-12-27T18:25:48.489Z,22.90
2018-12-27T18:28:16.155Z,21.90
2018-12-27T18:30:43.790Z,21.50
2018-12-27T18:33:11.413Z,20.60
2018-12-27T18:35:39.142Z,20.30
2018-12-27T18:38:06.830Z,19.50
2018-12-27T18:40:34.414Z,19.90
2018-12-27T18:43:02.141Z,19.60
2018-12-27T18:45:29.763Z,19.20
2018-12-27T18:47:57.467Z,19.00
2018-12-27T18:50:25.201Z,21.50
2018-12-27T18:52:52.876Z,22.50
2018-12-27T18:55:20.645Z,22.70
2018-12-27T18:57:48.292Z,23.30
2018-12-27T19:00:16.031Z,23.50
2018-12-27T19:02:43.782Z,23.70
2018-12-27T19:05:11.535Z,23.80
2018-12-27T19:07:44.882Z,23.70
2018-12-27T19:10:08.535Z,23.90
2018-12-27T19:12:49.699Z,24.20
2018-12-27T19:15:17.704Z,24.50
2018-12-27T19:17:46.746Z,25.00
2018-12-27T19:20:14.383Z,24.60
2018-12-27T19:22:43.761Z,24.70
2018-12-27T19:25:11.481Z,24.80
2018-12-27T19:27:39.113Z,24.90
2018-12-27T19:30:06.929Z,25.10
2018-12-27T19:32:34.693Z,25.10
2018-12-27T19:35:02.431Z,25.20
2018-12-27T19:37:30.175Z,25.40
2018-12-27T19:39:57.951Z,25.50
2018-12-27T19:42:25.868Z,25.60
2018-12-27T19:44:54.099Z,25.60
2018-12-27T19:47:21.891Z,25.70
2018-12-27T19:49:49.577Z,25.80
2018-12-27T19:52:17.220Z,25.90
2018-12-27T19:54:44.914Z,26.00
2018-12-27T19:57:16.652Z,26.10
2018-12-27T19:59:43.591Z,26.30
2018-12-27T20:02:11.217Z,26.30
2018-12-27T20:04:38.900Z,26.40
2018-12-27T20:07:06.525Z,26.40
2018-12-27T20:09:34.249Z,26.50
2018-12-27T20:12:01.943Z,26.60
2018-12-27T20:14:29.547Z,26.80
2018-12-27T20:16:57.185Z,27.20
2018-12-27T20:19:24.973Z,28.10
2018-12-27T20:21:52.658Z,28.10
2018-12-27T20:24:20.362Z,27.40
2018-12-27T20:26:48.055Z,27.20
2018-12-27T20:29:15.753Z,27.30
2018-12-27T20:31:43.401Z,27.30
2018-12-27T20:34:11.089Z,27.30
2018-12-27T20:36:38.882Z,27.40
2018-12-27T20:39:06.576Z,27.50
2018-12-27T20:41:34.288Z,27.60
2018-12-27T20:44:02.077Z,27.60
2018-12-27T20:46:29.839Z,27.60
2018-12-27T20:48:57.515Z,28.00
2018-12-27T20:51:25.139Z,28.00
2018-12-27T20:53:52.856Z,28.00
2018-12-27T20:56:20.541Z,28.00
2018-12-27T20:58:48.249Z,28.00
2018-12-27T21:01:15.928Z,28.00
2018-12-27T21:03:43.569Z,28.00
2018-12-27T21:06:11.259Z,28.00
2018-12-27T21:08:39.018Z,28.00
2018-12-27T21:11:06.637Z,28.00
2018-12-27T21:13:34.386Z,28.10
2018-12-27T21:16:02.122Z,28.00
2018-12-27T21:18:29.813Z,28.00
2018-12-27T21:20:57.500Z,28.00
2018-12-27T21:23:25.277Z,28.00
2018-12-27T21:25:52.984Z,28.10
2018-12-27T21:28:20.636Z,28.10
2018-12-27T21:30:48.325Z,28.10
2018-12-27T21:33:15.993Z,28.00
2018-12-27T21:35:43.701Z,28.00
2018-12-27T21:38:11.375Z,28.10
2018-12-27T21:40:39.066Z,28.10
2018-12-27T21:43:06.813Z,28.10
2018-12-27T21:45:34.500Z,28.10
2018-12-27T21:48:02.144Z,28.10
2018-12-27T21:50:29.881Z,28.10
2018-12-27T21:52:57.568Z,28.10
2018-12-27T21:55:25.225Z,28.10
2018-12-27T21:57:52.921Z,28.10
2018-12-27T22:00:20.561Z,28.10
2018-12-27T22:02:48.214Z,28.10
2018-12-27T22:05:15.903Z,28.10
2018-12-27T22:07:43.608Z,28.00
2018-12-27T22:10:11.270Z,28.10
2018-12-27T22:12:39.015Z,28.10
2018-12-27T22:15:06.820Z,28.60
2018-12-27T22:17:34.520Z,28.10
2018-12-27T22:20:02.249Z,28.10
2018-12-27T22:22:29.978Z,28.10
2018-12-27T22:24:57.642Z,28.10
2018-12-27T22:27:25.389Z,28.10
2018-12-27T22:29:53.022Z,28.10
2018-12-27T22:32:20.654Z,28.10
2018-12-27T22:34:48.315Z,28.10
2018-12-27T22:37:15.964Z,28.10
2018-12-27T22:39:43.645Z,28.10
2018-12-27T22:42:11.310Z,28.10
2018-12-27T22:44:38.954Z,28.10
2018-12-27T22:47:06.606Z,28.10
2018-12-27T22:49:34.369Z,28.10
2018-12-27T22:52:01.998Z,28.10
2018-12-27T22:54:29.710Z,28.10
2018-12-27T22:56:57.488Z,28.10
2018-12-27T22:59:25.151Z,28.10
2018-12-27T23:01:52.750Z,28.10
2018-12-27T23:04:20.430Z,28.10
2018-12-27T23:06:48.085Z,28.10
2018-12-27T23:09:15.694Z,28.10
2018-12-27T23:11:43.433Z,28.10
2018-12-27T23:14:11.126Z,28.10
2018-12-27T23:16:38.736Z,28.10
2018-12-27T23:19:06.448Z,28.10
2018-12-27T23:21:34.198Z,28.10
2018-12-27T23:24:03.925Z,28.10
2018-12-27T23:26:31.850Z,28.10
2018-12-27T23:29:01.382Z,28.10
2018-12-27T23:31:29.048Z,28.10
2018-12-27T23:33:56.763Z,28.10
2018-12-27T23:36:24.444Z,28.10
2018-12-27T23:38:52.058Z,28.10
2018-12-27T23:41:19.733Z,28.10
2018-12-27T23:43:47.422Z,28.10
2018-12-27T23:46:15.091Z,28.10
2018-12-27T23:48:42.845Z,28.10
2018-12-27T23:51:10.509Z,28.10
2018-12-27T23:53:38.196Z,28.00
2018-12-27T23:56:05.948Z,28.00
2018-12-27T23:58:33.557Z,28.00
